Huvudsida
METAR-TAF:

METAR-TAF

Flygplatser :

Nome, Alaska, USA

latitud: 64-30-43N, longitud: 165-26-42W, höjd: 11 m

Aktuellt väderrapport

Denna rapport gjordes för 39 minuter sedan, klockan 23:53 UTC
Vind 5 kt från syd/sydväst
Temperatur 12°C
Fuktighet 67%
Tryck 1014 hPa
Sikt: 16.1 km
Klar himmel

METAR: PAOM 172353Z 21005KT 10SM CLR 12/06 A2994 RMK AO2 SLP139 T01220061 10144 20089 58008

Tid: 16:32 (00:32 UTC)

Väderprognos

Denna rapport gjordes för 49 minuter sedan, klockan 23:43 UTC
Prognos gäller från 18 kl. 00 UTC till 18 kl. 24 UTC
Vind 6 kt varierande vindriktning
Sikt: 10 km
Spridda moln på en höjd av 12000 ft
Från 18 kl. 2100 UTC
Vind 8 kt från syd
Sikt: 10 km
Spridda moln på en höjd av 1500 ft
Mulet på en höjd av 3000 ft

TAF: PAOM 172343Z 1800/1824 VRB06KT P6SM SCT120 FM182100 19008KT P6SM SCT015 OVC030

Aktuella väderrapporter och prognoser från 4000 flygplatser (METAR- och TAF-rapporter).

De tillgängliga stationerna syns som gula och röda prickar på kartan.

För musen över prickarna för att se namnen på stationerna.

Klicka sedan för att få väderrapporter och prognoser.

För att ändra kartan: Klicka på de gröna knapparna med ett svart kors på för att zooma in; den gröna knappen med ett streck på för att zooma ut; eller på de gröna pilarna för angränsande kartor.


METAR-TAF: